Pagrindinis puslapis
METAR-TAF:

METAR-TAF

Oro uostai :

Luangnamta, Laosas

platuma: 20-57-38N, ilguma: 101-24-09E, Aukštis: 600 m

Dabartinis oras

Ataskaita buvo paskelbta 2 valandos ir 49 minutes, ne 12:00 UTC
Vėjas 2 kt iš Pietryčių
Temperatūra 22°C
Drėgmė 88%
Slėgis 1016 hPa
Matomumas: 6000 m
Mažai debesys ne aukštis 5000 ft

METAR: VLLN 211200Z 14002KT 6000 FEW050 22/20 Q1016 NOSIG

Laikas: 20:19 (14:49 UTC)

Prognozė

Ataskaita buvo paskelbta 3 valandos ir 49 minutes, ne 11:00 UTC
Prognozė galioja nuo 21 metu 12 UTC su 22 metu 12 UTC
Vėjas 4 kt iš Vakarų
Matomumas: 7000 m
Išsisklaidę debesys ne aukštis 2000 ft
Mažai debesys ne aukštis 10000 ft

TAF: VLLN 211100Z 2112/2212 27004KT 7000 SCT020 FEW100

Orai ataskaitas ir orų prognozės (METAR, TAF).

turimą stotys yra geltonos ir raudonos taškus žemėlapyje.

Perkelti pele per norėdami pamatyti stoties vardą.

Tada spustelėkite, norėdami matyti oro stebėjimo ir prognozės.

Norėdami pakeisti žemėlapį: spustelėkite ant žalios mygtukų su juodo kryžiaus žemyn,; žalią mygtuką su brūkšneliu, jei norite nutolinti; arba žalių rodyklių gretimoms žemėlapius.


METAR-TAF: